Time;durP1;ratioP1;P1;durP2;ratioP2;P2;SDS_P1;SDS_P2;PMS_P1;PMS_P2;Temp;Humidity;BMP_temperature;BMP_pressure;BME280_temperature;BME280_humidity;BME280_pressure;Samples;Min_cycle;Max_cycle;Signal;HPM_P1;HPM_P2
2021/12/23 00:02:23;;;;;;;22.60;11.80;;;-0.30;84.50;;;;;;5032256;28;20166;-73
2021/12/23 00:04:49;;;;;;;16.90;9.80;;;-0.30;84.50;;;;;;5034587;28;20198;-73
2021/12/23 00:07:14;;;;;;;17.73;10.63;;;-0.30;84.70;;;;;;5034267;28;20208;-72
2021/12/23 00:12:17;;;;;;;20.17;12.90;;;-0.30;84.80;;;;;;5033815;28;20588;-71
2021/12/23 00:14:45;;;;;;;21.90;12.87;;;-0.30;85.00;;;;;;5048601;28;20433;-72
2021/12/23 00:17:41;;;;;;;21.37;12.07;;;-0.30;85.00;;;;;;5033109;28;20453;-73
2021/12/23 00:25:19;;;;;;;19.63;11.10;;;-0.30;85.00;;;;;;5033769;28;20467;-73
2021/12/23 00:27:45;;;;;;;21.43;12.33;;;-0.30;85.00;;;;;;5033426;28;20488;-71
2021/12/23 00:30:11;;;;;;;27.90;11.97;;;-0.30;85.00;;;;;;5033807;28;20179;-71
2021/12/23 00:32:37;;;;;;;26.80;13.00;;;-0.40;85.00;;;;;;5033632;28;20409;-71
2021/12/23 00:35:07;;;;;;;23.00;13.90;;;-0.40;85.00;;;;;;5033596;28;20678;-72
2021/12/23 00:37:38;;;;;;;24.60;12.10;;;-0.40;85.00;;;;;;5034767;28;20433;-74
2021/12/23 00:40:05;;;;;;;22.17;12.50;;;-0.40;85.10;;;;;;5035878;28;20777;-72
2021/12/23 00:42:32;;;;;;;21.73;11.60;;;-0.30;85.10;;;;;;5035519;28;20420;-71
2021/12/23 00:45:00;;;;;;;23.43;13.10;;;-0.30;85.10;;;;;;5037533;28;20432;-71
2021/12/23 00:47:25;;;;;;;23.30;12.00;;;-0.30;85.10;;;;;;5021273;28;20464;-72
2021/12/23 00:49:51;;;;;;;30.03;13.17;;;-0.30;85.00;;;;;;5037260;28;20405;-72
2021/12/23 00:52:23;;;;;;;19.87;11.13;;;-0.30;84.80;;;;;;5034342;28;20937;-74
2021/12/23 00:54:49;;;;;;;25.63;10.77;;;-0.30;85.00;;;;;;5035451;28;20536;-71
2021/12/23 00:57:15;;;;;;;24.03;13.53;;;-0.30;85.10;;;;;;5035081;28;20479;-72
2021/12/23 00:59:41;;;;;;;27.27;11.80;;;-0.30;85.10;;;;;;5035315;28;20186;-74
2021/12/23 01:02:09;;;;;;;24.77;12.07;;;-0.30;84.90;;;;;;5035368;28;20485;-72
2021/12/23 01:04:35;;;;;;;22.07;12.43;;;-0.30;85.00;;;;;;5035386;28;20495;-73
2021/12/23 01:07:02;;;;;;;21.00;11.30;;;-0.30;84.90;;;;;;5032817;28;20480;-73
2021/12/23 01:09:27;;;;;;;26.97;13.20;;;-0.30;84.90;;;;;;5034387;28;20165;-73
2021/12/23 01:11:54;;;;;;;18.23;11.53;;;-0.30;84.90;;;;;;5032988;28;20918;-75
2021/12/23 01:17:12;;;;;;;23.10;12.40;;;-0.40;84.80;;;;;;5033448;28;20420;-72
2021/12/23 01:19:39;;;;;;;24.13;11.30;;;-0.40;85.00;;;;;;5035450;28;20174;-72
2021/12/23 01:22:07;;;;;;;27.07;12.17;;;-0.40;85.00;;;;;;5033291;28;20476;-73
2021/12/23 01:24:33;;;;;;;22.90;12.20;;;-0.40;85.20;;;;;;5034740;28;20452;-73
2021/12/23 01:27:00;;;;;;;24.93;11.07;;;-0.40;85.50;;;;;;5033040;28;20464;-73
2021/12/23 01:29:26;;;;;;;24.40;12.87;;;-0.50;85.40;;;;;;5031122;28;20468;-71
2021/12/23 01:31:52;;;;;;;24.90;13.10;;;-0.40;85.70;;;;;;5032463;28;20906;-72
2021/12/23 01:34:17;;;;;;;24.00;13.20;;;-0.40;85.50;;;;;;5032405;28;20193;-73
2021/12/23 01:36:43;;;;;;;19.80;11.40;;;-0.50;85.60;;;;;;5031583;28;20177;-72
2021/12/23 01:39:09;;;;;;;24.57;12.10;;;-0.50;86.00;;;;;;5032930;28;20181;-73
2021/12/23 01:41:34;;;;;;;25.00;13.17;;;-0.50;86.00;;;;;;5032793;28;20170;-73
2021/12/23 01:44:00;;;;;;;19.30;11.40;;;-0.50;86.20;;;;;;5030620;28;20178;-73
2021/12/23 01:46:26;;;;;;;21.23;11.80;;;-0.50;86.30;;;;;;5032104;28;20695;-73
2021/12/23 01:48:52;;;;;;;20.50;12.40;;;-0.50;86.40;;;;;;5032798;28;20171;-73
2021/12/23 01:51:19;;;;;;;23.53;12.53;;;-0.50;86.30;;;;;;5031596;28;20181;-73
2021/12/23 01:53:45;;;;;;;19.93;11.47;;;-0.50;86.20;;;;;;5049969;28;20933;-73
2021/12/23 01:56:11;;;;;;;25.87;12.60;;;-0.50;86.30;;;;;;5051902;28;20504;-71
2021/12/23 01:58:41;;;;;;;21.63;13.17;;;-0.50;86.20;;;;;;5051033;28;21002;-72
2021/12/23 02:01:08;;;;;;;24.03;13.10;;;-0.50;86.30;;;;;;5056303;28;20450;-72
2021/12/23 02:03:34;;;;;;;23.73;13.47;;;-0.50;86.50;;;;;;5050696;28;20408;-72
2021/12/23 02:06:00;;;;;;;21.20;11.30;;;-0.50;86.60;;;;;;5031829;28;20497;-72
2021/12/23 02:08:26;;;;;;;24.37;11.77;;;-0.50;86.70;;;;;;5032342;28;20771;-72
2021/12/23 02:10:54;;;;;;;24.23;11.13;;;-0.50;86.80;;;;;;5047837;28;20424;-72
2021/12/23 02:13:23;;;;;;;24.27;13.23;;;-0.50;86.80;;;;;;5031304;28;20247;-71
2021/12/23 02:15:49;;;;;;;23.40;12.60;;;-0.60;86.80;;;;;;5047102;28;20445;-73
2021/12/23 02:18:15;;;;;;;23.00;11.80;;;-0.50;87.00;;;;;;5032177;28;20416;-73
2021/12/23 02:20:41;;;;;;;25.53;11.20;;;-0.50;86.90;;;;;;5032902;28;20603;-73
2021/12/23 02:23:09;;;;;;;27.03;12.50;;;-0.50;86.80;;;;;;5031611;28;20608;-73
2021/12/23 02:25:35;;;;;;;22.97;12.97;;;-0.50;86.80;;;;;;5033351;28;20191;-72
2021/12/23 02:28:07;;;;;;;21.67;11.60;;;-0.50;86.90;;;;;;5031150;28;20551;-73
2021/12/23 02:30:38;;;;;;;28.13;13.77;;;-0.50;86.90;;;;;;5031098;28;20421;-73
2021/12/23 02:33:05;;;;;;;22.33;11.77;;;-0.50;86.80;;;;;;5032051;28;20413;-72
2021/12/23 02:35:31;;;;;;;26.83;11.27;;;-0.40;87.00;;;;;;5032370;28;20432;-72
2021/12/23 02:37:56;;;;;;;19.00;12.83;;;-0.40;87.00;;;;;;5033277;28;20772;-71
2021/12/23 02:40:26;;;;;;;21.47;13.47;;;-0.40;86.90;;;;;;5034034;28;20181;-71
2021/12/23 02:42:53;;;;;;;20.10;11.40;;;-0.40;86.70;;;;;;5038656;28;20170;-71
2021/12/23 02:45:18;;;;;;;24.50;13.33;;;-0.40;86.60;;;;;;5039888;28;20424;-70
2021/12/23 02:47:44;;;;;;;21.50;12.00;;;-0.30;86.60;;;;;;5052745;28;20478;-70
2021/12/23 02:50:10;;;;;;;25.40;14.03;;;-0.30;86.30;;;;;;5052284;28;20246;-72
2021/12/23 02:52:36;;;;;;;24.83;13.20;;;-0.30;87.10;;;;;;5052749;28;20187;-72
2021/12/23 02:55:04;;;;;;;23.37;13.30;;;-0.30;86.10;;;;;;5035606;28;20187;-71
2021/12/23 02:57:32;;;;;;;23.87;12.90;;;-0.20;86.00;;;;;;5035686;28;21171;-74
2021/12/23 02:59:58;;;;;;;20.40;12.03;;;-0.20;85.90;;;;;;5035689;28;20466;-71
2021/12/23 03:02:23;;;;;;;22.43;11.57;;;-0.20;85.60;;;;;;5052092;28;20945;-71
2021/12/23 03:04:49;;;;;;;23.00;11.47;;;-0.20;85.50;;;;;;5053200;28;20490;-72
2021/12/23 03:07:15;;;;;;;21.00;11.50;;;-0.20;85.60;;;;;;5055274;28;20646;-74
2021/12/23 03:09:45;;;;;;;19.50;12.60;;;-0.20;85.70;;;;;;5043938;28;20248;-73
2021/12/23 03:12:11;;;;;;;26.43;12.23;;;-0.20;85.90;;;;;;5034727;28;20421;-71
2021/12/23 03:14:36;;;;;;;21.47;12.70;;;-0.20;86.10;;;;;;5034095;28;20429;-72
2021/12/23 03:17:02;;;;;;;21.10;10.97;;;-0.20;86.30;;;;;;5034612;28;20201;-72
2021/12/23 03:19:28;;;;;;;23.53;12.83;;;-0.20;86.00;;;;;;5036075;28;20269;-73
2021/12/23 03:21:54;;;;;;;22.67;12.37;;;-0.10;86.20;;;;;;5035270;28;20488;-73
2021/12/23 03:24:19;;;;;;;23.27;12.30;;;-0.10;86.30;;;;;;5035163;28;20241;-73
2021/12/23 03:26:45;;;;;;;23.47;12.60;;;-0.10;86.30;;;;;;5035268;28;20244;-72
2021/12/23 03:29:11;;;;;;;23.87;13.83;;;-0.10;86.10;;;;;;5034423;28;20432;-73
2021/12/23 03:31:38;;;;;;;23.03;12.57;;;0.00;85.90;;;;;;5039947;28;20170;-72
2021/12/23 03:34:04;;;;;;;21.83;12.77;;;0.00;85.90;;;;;;5054207;28;20435;-72
2021/12/23 03:36:30;;;;;;;27.50;14.37;;;0.00;85.90;;;;;;5052992;28;20450;-70
2021/12/23 03:38:56;;;;;;;24.40;11.63;;;0.00;85.80;;;;;;5053834;28;20511;-71
2021/12/23 03:41:22;;;;;;;22.23;12.27;;;0.00;85.80;;;;;;5054881;28;20412;-73
2021/12/23 03:43:48;;;;;;;17.37;10.37;;;0.00;85.80;;;;;;5053075;28;20461;-73
2021/12/23 03:46:14;;;;;;;21.37;12.57;;;0.00;86.10;;;;;;5053524;28;20296;-73
2021/12/23 03:48:40;;;;;;;21.97;13.70;;;0.00;85.80;;;;;;5052729;28;20440;-72
2021/12/23 03:51:05;;;;;;;29.70;13.20;;;0.00;85.90;;;;;;5034775;28;20234;-72
2021/12/23 03:53:31;;;;;;;21.30;12.10;;;-0.10;86.00;;;;;;5034355;28;20836;-73
2021/12/23 03:55:57;;;;;;;28.77;14.10;;;-0.10;86.10;;;;;;5034151;28;20224;-73
2021/12/23 03:58:23;;;;;;;24.07;12.97;;;-0.10;86.30;;;;;;5049468;28;20285;-72
2021/12/23 04:00:50;;;;;;;25.10;13.10;;;-0.10;86.30;;;;;;5034114;28;20177;-72
2021/12/23 04:03:16;;;;;;;21.73;12.50;;;-0.10;86.30;;;;;;5033244;28;20221;-72
2021/12/23 04:05:42;;;;;;;25.20;12.13;;;-0.10;86.60;;;;;;5034691;28;20520;-72
2021/12/23 04:08:08;;;;;;;22.90;12.50;;;-0.20;86.60;;;;;;5035335;28;20593;-70
2021/12/23 04:10:34;;;;;;;29.40;14.87;;;-0.10;86.80;;;;;;5049073;28;20424;-73
2021/12/23 04:12:59;;;;;;;24.17;13.00;;;-0.10;86.80;;;;;;5054157;28;20265;-71
2021/12/23 04:15:25;;;;;;;23.60;11.53;;;-0.10;86.90;;;;;;5053205;28;20476;-74
2021/12/23 04:17:51;;;;;;;25.33;14.43;;;-0.10;86.90;;;;;;5053104;28;20211;-72
2021/12/23 04:20:21;;;;;;;21.93;12.60;;;-0.10;87.10;;;;;;5042261;28;20424;-71
2021/12/23 04:22:50;;;;;;;23.67;12.70;;;-0.10;87.10;;;;;;5032440;28;20202;-71
2021/12/23 04:25:18;;;;;;;25.03;14.20;;;0.00;87.10;;;;;;5034452;28;20486;-72
2021/12/23 04:27:46;;;;;;;25.23;13.20;;;0.00;87.20;;;;;;5032492;28;20453;-72
2021/12/23 04:30:13;;;;;;;25.83;12.77;;;-0.10;87.00;;;;;;5033093;28;20421;-74
2021/12/23 04:32:42;;;;;;;27.90;12.67;;;-0.10;87.10;;;;;;5033076;28;20429;-71
2021/12/23 04:35:08;;;;;;;24.60;13.67;;;-0.10;87.40;;;;;;5033846;28;20432;-71
2021/12/23 04:37:34;;;;;;;26.33;11.90;;;-0.10;87.60;;;;;;5033582;28;20401;-72
2021/12/23 04:40:00;;;;;;;24.13;14.33;;;-0.10;87.70;;;;;;5034181;28;20452;-73
2021/12/23 04:42:26;;;;;;;23.43;12.53;;;-0.20;87.60;;;;;;5034133;28;20505;-72
2021/12/23 04:44:52;;;;;;;22.33;13.97;;;-0.20;87.70;;;;;;5032686;28;20465;-74
2021/12/23 04:47:18;;;;;;;19.47;12.53;;;-0.20;88.00;;;;;;5033554;28;20682;-72
2021/12/23 04:49:44;;;;;;;24.00;13.10;;;-0.20;88.10;;;;;;5033303;28;20508;-71
2021/12/23 04:52:09;;;;;;;28.70;13.40;;;-0.20;88.10;;;;;;5033773;28;20413;-71
2021/12/23 04:54:37;;;;;;;24.27;13.50;;;-0.20;88.20;;;;;;5033137;28;20436;-73
2021/12/23 04:57:03;;;;;;;21.00;12.30;;;-0.10;88.30;;;;;;5031777;28;20174;-72
2021/12/23 04:59:28;;;;;;;22.03;13.60;;;-0.10;88.00;;;;;;5038014;28;20425;-73
2021/12/23 05:01:54;;;;;;;29.10;13.70;;;-0.20;88.00;;;;;;5053243;28;20642;-71
2021/12/23 05:04:20;;;;;;;23.03;13.80;;;-0.20;88.10;;;;;;5052318;28;20192;-71
2021/12/23 05:06:45;;;;;;;26.90;13.90;;;-0.20;88.30;;;;;;5052754;28;20189;-72
2021/12/23 05:09:11;;;;;;;26.07;14.07;;;-0.20;88.60;;;;;;5051552;28;20169;-73
2021/12/23 05:11:36;;;;;;;22.73;12.47;;;-0.20;88.80;;;;;;5033304;28;20262;-73
2021/12/23 05:14:02;;;;;;;24.30;11.60;;;-0.20;88.90;;;;;;5033085;28;20218;-72
2021/12/23 05:16:28;;;;;;;27.33;15.57;;;-0.30;88.70;;;;;;5032893;28;20194;-72
2021/12/23 05:18:53;;;;;;;25.80;14.87;;;-0.30;88.90;;;;;;5032804;28;20162;-73
2021/12/23 05:21:19;;;;;;;23.97;13.97;;;-0.40;89.30;;;;;;5052041;28;20170;-72
2021/12/23 05:23:45;;;;;;;23.60;13.10;;;-0.40;89.50;;;;;;5052419;28;20166;-72
2021/12/23 05:26:10;;;;;;;29.17;14.23;;;-0.40;89.80;;;;;;5052525;28;20200;-72
2021/12/23 05:28:36;;;;;;;25.07;13.47;;;-0.40;90.00;;;;;;5052568;28;20188;-70
2021/12/23 05:31:03;;;;;;;21.87;12.00;;;-0.50;90.10;;;;;;5052198;28;20181;-74
2021/12/23 05:33:29;;;;;;;28.13;13.70;;;-0.50;90.20;;;;;;5052595;28;20443;-71
2021/12/23 05:35:55;;;;;;;30.67;13.53;;;-0.50;90.30;;;;;;5052368;28;20436;-72
2021/12/23 05:38:21;;;;;;;22.70;11.90;;;-0.50;90.40;;;;;;5053839;28;20165;-72
2021/12/23 05:40:47;;;;;;;30.93;15.50;;;-0.50;90.50;;;;;;5035471;28;20257;-73
2021/12/23 05:43:13;;;;;;;25.87;13.13;;;-0.50;90.60;;;;;;5032680;28;20448;-72
2021/12/23 05:45:39;;;;;;;28.03;12.90;;;-0.60;90.70;;;;;;5032166;28;20183;-73
2021/12/23 05:48:04;;;;;;;33.10;14.07;;;-0.60;90.70;;;;;;5047677;28;20202;-71
2021/12/23 05:50:30;;;;;;;26.17;13.50;;;-0.50;90.90;;;;;;5032821;28;20269;-74
2021/12/23 05:52:56;;;;;;;28.53;15.40;;;-0.60;91.00;;;;;;5033518;28;20155;-74
2021/12/23 05:55:22;;;;;;;28.10;14.33;;;-0.50;91.00;;;;;;5032486;28;20186;-72
2021/12/23 05:57:49;;;;;;;24.10;14.50;;;-0.50;91.00;;;;;;5033822;28;20181;-73
2021/12/23 06:00:22;;;;;;;30.00;13.63;;;-0.50;91.10;;;;;;5032318;28;21020;-74
2021/12/23 06:02:49;;;;;;;27.60;14.20;;;-0.50;91.10;;;;;;5033465;28;20427;-72
2021/12/23 06:05:15;;;;;;;24.50;15.93;;;-0.50;91.10;;;;;;5032979;28;20453;-73
2021/12/23 06:07:41;;;;;;;31.90;14.93;;;-0.40;91.10;;;;;;5033329;28;20535;-73
2021/12/23 06:10:09;;;;;;;29.83;13.77;;;-0.30;91.10;;;;;;5033327;28;20417;-72
2021/12/23 06:12:35;;;;;;;27.07;13.67;;;-0.30;91.00;;;;;;5014935;28;20409;-73
2021/12/23 06:15:01;;;;;;;30.03;14.87;;;-0.30;90.90;;;;;;5032470;28;20527;-73
2021/12/23 06:17:26;;;;;;;25.80;14.17;;;-0.20;90.90;;;;;;5036408;28;20711;-72
2021/12/23 06:19:52;;;;;;;25.37;13.70;;;-0.20;90.80;;;;;;5037075;28;20557;-72
2021/12/23 06:22:18;;;;;;;32.50;14.83;;;-0.20;90.80;;;;;;5037319;28;20235;-73
2021/12/23 06:24:47;;;;;;;25.03;13.33;;;-0.20;90.70;;;;;;5036796;28;20193;-74
2021/12/23 06:27:17;;;;;;;31.13;14.30;;;-0.10;90.70;;;;;;5037045;28;20452;-73
2021/12/23 06:29:43;;;;;;;34.07;16.10;;;-0.10;90.60;;;;;;5037233;28;20543;-71
2021/12/23 06:32:09;;;;;;;29.00;16.30;;;-0.10;90.50;;;;;;5053888;28;20440;-75
2021/12/23 06:34:34;;;;;;;29.17;13.90;;;0.00;90.40;;;;;;5035909;28;20304;-73
2021/12/23 06:37:01;;;;;;;29.23;15.83;;;0.00;90.40;;;;;;5037101;28;20902;-71
2021/12/23 06:39:27;;;;;;;23.23;12.90;;;0.00;90.40;;;;;;5037440;28;20577;-72
2021/12/23 06:41:53;;;;;;;24.93;13.50;;;0.00;90.40;;;;;;5040009;28;20451;-71
2021/12/23 06:44:20;;;;;;;30.80;13.90;;;0.00;90.30;;;;;;5042359;28;20425;-70
2021/12/23 06:46:46;;;;;;;27.27;12.83;;;0.00;90.30;;;;;;5036927;28;20272;-72
2021/12/23 06:49:16;;;;;;;28.90;14.40;;;0.00;90.30;;;;;;5045481;28;20420;-74
2021/12/23 06:51:42;;;;;;;26.80;14.73;;;0.00;90.20;;;;;;5057620;28;20916;-75
2021/12/23 06:54:09;;;;;;;29.93;14.63;;;0.10;90.20;;;;;;5056213;28;20510;-72
2021/12/23 06:56:35;;;;;;;22.73;12.97;;;0.10;90.20;;;;;;5056788;28;20442;-73
2021/12/23 06:59:01;;;;;;;26.17;13.30;;;0.00;90.20;;;;;;5046507;28;20429;-72
2021/12/23 07:01:26;;;;;;;31.13;13.90;;;0.10;90.30;;;;;;5038947;28;20369;-74
2021/12/23 07:06:32;;;;;;;25.43;14.63;;;0.10;90.30;;;;;;5054930;28;20569;-73
2021/12/23 07:08:58;;;;;;;35.70;16.63;;;0.10;90.30;;;;;;5047852;28;20472;-72
2021/12/23 07:11:24;;;;;;;28.07;14.67;;;0.10;90.20;;;;;;5036949;28;20458;-74
2021/12/23 07:13:50;;;;;;;33.87;16.37;;;0.10;90.20;;;;;;5036031;28;20496;-72
2021/12/23 07:16:16;;;;;;;26.30;13.67;;;0.10;90.30;;;;;;5035811;28;20186;-72
2021/12/23 07:18:41;;;;;;;28.80;14.40;;;0.10;90.30;;;;;;5050587;28;20429;-71
2021/12/23 07:21:07;;;;;;;32.30;15.93;;;0.10;90.20;;;;;;5035492;28;20413;-72
2021/12/23 07:23:33;;;;;;;27.03;13.87;;;0.20;90.30;;;;;;5035747;28;20170;-73
2021/12/23 07:25:58;;;;;;;27.43;14.13;;;0.20;90.20;;;;;;5037283;28;20240;-74
2021/12/23 07:28:24;;;;;;;27.77;13.90;;;0.20;90.30;;;;;;5036446;28;20262;-73
2021/12/23 07:30:50;;;;;;;28.67;13.80;;;0.20;90.00;;;;;;5038630;28;20213;-74
2021/12/23 07:33:15;;;;;;;23.03;12.93;;;0.20;90.00;;;;;;5049422;28;20171;-72
2021/12/23 07:35:41;;;;;;;32.13;14.70;;;0.20;89.90;;;;;;5049824;28;20190;-73
2021/12/23 07:38:07;;;;;;;23.57;14.10;;;0.20;89.90;;;;;;5049450;28;20190;-74
2021/12/23 07:40:33;;;;;;;28.10;14.77;;;0.20;90.00;;;;;;5037621;28;20162;-72
2021/12/23 07:43:09;;;;;;;27.73;15.17;;;0.20;90.00;;;;;;5035866;28;20868;-72
2021/12/23 07:45:36;;;;;;;26.17;13.80;;;0.20;90.00;;;;;;5036050;28;20455;-72
2021/12/23 07:48:03;;;;;;;29.83;14.10;;;0.20;90.00;;;;;;5034559;28;20513;-71
2021/12/23 07:50:28;;;;;;;23.57;12.90;;;0.30;90.00;;;;;;5034798;28;20440;-72
2021/12/23 07:52:54;;;;;;;25.47;13.87;;;0.30;90.10;;;;;;5035137;28;20421;-73
2021/12/23 07:55:21;;;;;;;19.70;12.17;;;0.30;90.10;;;;;;5033226;28;20228;-73
2021/12/23 07:57:48;;;;;;;24.67;13.40;;;0.30;90.00;;;;;;5038240;28;20483;-73
2021/12/23 08:00:14;;;;;;;26.93;13.70;;;0.40;89.50;;;;;;5035875;28;20417;-72
2021/12/23 08:02:41;;;;;;;23.00;13.07;;;0.40;89.50;;;;;;5039889;28;20513;-71
2021/12/23 08:05:07;;;;;;;27.73;12.87;;;0.40;89.20;;;;;;5040968;28;20501;-73
2021/12/23 08:07:33;;;;;;;22.70;13.47;;;0.50;89.30;;;;;;5034735;28;20496;-72
2021/12/23 08:09:59;;;;;;;24.00;14.13;;;0.50;88.90;;;;;;5037738;28;20405;-72
2021/12/23 08:12:25;;;;;;;34.00;16.30;;;0.50;88.70;;;;;;5035252;28;20194;-73
2021/12/23 08:14:51;;;;;;;29.37;14.20;;;0.50;88.40;;;;;;5035452;28;22193;-72
2021/12/23 08:17:16;;;;;;;21.17;13.80;;;0.50;88.40;;;;;;5035029;28;20232;-73
2021/12/23 08:19:42;;;;;;;23.73;11.03;;;0.60;88.60;;;;;;5034129;28;20191;-74
2021/12/23 08:22:08;;;;;;;32.43;16.10;;;0.60;88.70;;;;;;5033784;28;20166;-72
2021/12/23 08:24:34;;;;;;;24.93;13.67;;;0.60;88.00;;;;;;5035915;28;20194;-74
2021/12/23 08:27:01;;;;;;;26.47;14.47;;;0.60;87.90;;;;;;5034955;28;20485;-73
2021/12/23 08:29:27;;;;;;;25.70;12.90;;;0.60;87.60;;;;;;5034058;28;20427;-72
2021/12/23 08:31:53;;;;;;;22.03;13.20;;;0.70;87.80;;;;;;5038164;28;20433;-74
2021/12/23 08:34:27;;;;;;;29.90;14.50;;;0.70;87.70;;;;;;5034988;28;20873;-70
2021/12/23 08:36:53;;;;;;;24.40;10.80;;;0.70;87.30;;;;;;5033264;28;20463;-72
2021/12/23 08:39:20;;;;;;;25.67;14.83;;;0.80;87.60;;;;;;5033667;28;20397;-72
2021/12/23 08:41:46;;;;;;;24.63;13.97;;;0.80;87.00;;;;;;5032906;28;20532;-73
2021/12/23 08:44:12;;;;;;;26.60;13.77;;;0.80;86.50;;;;;;5032220;28;20520;-74
2021/12/23 08:46:38;;;;;;;29.60;14.77;;;0.90;86.70;;;;;;5027095;28;20551;-74
2021/12/23 08:49:05;;;;;;;29.00;14.50;;;0.90;86.30;;;;;;5026370;28;20500;-71
2021/12/23 08:51:33;;;;;;;23.10;12.33;;;0.90;85.60;;;;;;5032887;28;20454;-73
2021/12/23 08:53:59;;;;;;;27.27;14.17;;;0.90;85.40;;;;;;5039838;28;20413;-72
2021/12/23 08:56:25;;;;;;;20.73;13.17;;;0.90;85.40;;;;;;5028762;28;20476;-73
2021/12/23 08:58:50;;;;;;;29.70;14.30;;;1.00;86.00;;;;;;5035553;28;20441;-72
2021/12/23 09:01:16;;;;;;;23.10;13.93;;;1.00;85.40;;;;;;5033075;28;20174;-71
2021/12/23 09:03:42;;;;;;;25.13;14.40;;;1.00;85.30;;;;;;5033457;28;20178;-73
2021/12/23 09:06:08;;;;;;;23.43;13.17;;;1.10;85.20;;;;;;5034310;28;20957;-73
2021/12/23 09:08:34;;;;;;;31.63;13.13;;;1.10;84.60;;;;;;5041489;28;20453;-73
2021/12/23 09:11:00;;;;;;;27.27;14.20;;;1.10;84.50;;;;;;5043486;28;20185;-73
2021/12/23 09:13:28;;;;;;;25.17;14.03;;;1.10;84.60;;;;;;5044406;28;20431;-74
2021/12/23 09:15:54;;;;;;;39.67;15.50;;;1.10;84.80;;;;;;5055891;28;20461;-72
2021/12/23 09:18:21;;;;;;;26.00;14.50;;;1.10;84.70;;;;;;5043165;28;20456;-73
2021/12/23 09:20:47;;;;;;;26.17;11.87;;;1.20;84.40;;;;;;5040838;28;20459;-73
2021/12/23 09:23:13;;;;;;;24.97;12.87;;;1.20;84.50;;;;;;5035746;28;20493;-73
2021/12/23 09:25:40;;;;;;;26.30;14.40;;;1.30;84.00;;;;;;5039491;28;20448;-71
2021/12/23 09:28:23;;;;;;;27.17;15.03;;;1.30;83.40;;;;;;5038297;28;20472;-72
2021/12/23 09:33:35;;;;;;;30.17;13.97;;;1.40;83.50;;;;;;5035353;28;20425;-72
2021/12/23 09:36:01;;;;;;;21.50;12.50;;;1.60;83.20;;;;;;5036562;28;20449;-69
2021/12/23 09:38:27;;;;;;;28.03;14.50;;;1.60;82.90;;;;;;5039304;28;20423;-71
2021/12/23 09:41:15;;;;;;;30.43;13.90;;;1.70;81.70;;;;;;5041870;28;20447;-72
2021/12/23 09:43:42;;;;;;;32.80;16.40;;;1.80;81.70;;;;;;5044704;28;20170;-70
2021/12/23 09:46:10;;;;;;;32.00;15.60;;;1.90;80.50;;;;;;5041549;28;20902;-72
2021/12/23 09:48:39;;;;;;;20.97;12.13;;;2.00;80.30;;;;;;5036839;28;20471;-72
2021/12/23 09:51:06;;;;;;;36.97;16.33;;;2.20;78.90;;;;;;5035434;28;20420;-73
2021/12/23 09:53:34;;;;;;;25.63;13.77;;;2.30;79.30;;;;;;5043666;28;20494;-70
2021/12/23 09:56:04;;;;;;;33.53;17.33;;;2.50;78.60;;;;;;5046245;28;20463;-72
2021/12/23 09:58:30;;;;;;;27.37;13.30;;;2.80;76.90;;;;;;5039044;28;20413;-73
2021/12/23 10:00:56;;;;;;;27.57;14.10;;;2.80;74.70;;;;;;5039774;28;20417;-74
2021/12/23 10:03:24;;;;;;;28.73;13.50;;;2.90;74.80;;;;;;5039602;28;20416;-71
2021/12/23 10:05:50;;;;;;;25.03;12.50;;;2.90;74.00;;;;;;5031979;28;20205;-71
2021/12/23 10:08:16;;;;;;;23.67;12.27;;;2.90;73.80;;;;;;5032917;28;20517;-71
2021/12/23 10:30:18;;;;;;;31.70;14.93;;;3.30;71.10;;;;;;5031017;28;20460;-73
2021/12/23 10:38:29;;;;;;;25.47;12.97;;;3.10;72.70;;;;;;5030404;28;20425;-73
2021/12/23 10:41:02;;;;;;;30.13;13.60;;;3.10;73.00;;;;;;5031341;28;20433;-70
2021/12/23 10:43:34;;;;;;;30.43;14.87;;;3.20;72.20;;;;;;5030092;28;20443;-71
2021/12/23 10:46:03;;;;;;;29.03;14.07;;;3.20;71.80;;;;;;5031382;28;20519;-70
2021/12/23 10:48:33;;;;;;;22.77;13.00;;;3.20;72.10;;;;;;5031316;28;20457;-72
2021/12/23 10:51:08;;;;;;;28.13;12.23;;;3.30;70.90;;;;;;5030925;28;20432;-71
2021/12/23 10:59:05;;;;;;;23.03;12.60;;;3.30;70.60;;;;;;5015794;28;20475;-73
2021/12/23 11:01:31;;;;;;;22.60;12.77;;;3.30;70.50;;;;;;5029145;28;20955;-71
2021/12/23 11:04:03;;;;;;;25.93;12.93;;;3.30;71.10;;;;;;5033695;28;20420;-74
2021/12/23 11:06:38;;;;;;;22.23;13.60;;;3.40;71.60;;;;;;5035806;28;20468;-73
2021/12/23 11:39:44;;;;;;;27.03;12.70;;;4.00;68.70;;;;;;5037038;28;20542;-73
2021/12/23 11:42:15;;;;;;;32.03;17.50;;;4.00;69.10;;;;;;5036578;28;20427;-72
2021/12/23 11:44:41;;;;;;;26.07;14.17;;;3.90;69.20;;;;;;5036415;28;20439;-70
2021/12/23 11:47:13;;;;;;;26.20;14.10;;;3.90;69.40;;;;;;5035114;28;20452;-72
2021/12/23 11:49:41;;;;;;;36.07;15.90;;;3.90;69.90;;;;;;5033623;28;21699;-72
2021/12/23 11:52:07;;;;;;;26.07;13.37;;;3.90;69.90;;;;;;5033912;28;20500;-71
2021/12/23 11:54:36;;;;;;;51.87;26.70;;;3.90;70.30;;;;;;5035491;28;20973;-70
2021/12/23 11:57:16;;;;;;;31.30;15.50;;;3.80;70.40;;;;;;5034490;28;20508;-73
2021/12/23 11:59:49;;;;;;;22.10;13.37;;;3.90;70.80;;;;;;5035316;28;20433;-71
2021/12/23 12:02:20;;;;;;;24.40;14.30;;;3.90;70.60;;;;;;5033804;28;20425;-73
2021/12/23 12:04:48;;;;;;;28.23;14.87;;;4.00;71.20;;;;;;5035052;28;20473;-72
2021/12/23 12:07:20;;;;;;;25.93;13.80;;;4.00;70.20;;;;;;5034127;28;20445;-73
2021/12/23 12:09:58;;;;;;;26.70;14.17;;;4.10;70.70;;;;;;5035145;28;20424;-72
2021/12/23 12:12:24;;;;;;;27.03;15.10;;;4.20;70.50;;;;;;5045837;28;20555;-70
2021/12/23 12:14:55;;;;;;;25.63;13.80;;;4.20;70.40;;;;;;5045934;28;20448;-72
2021/12/23 12:17:23;;;;;;;26.70;15.40;;;4.20;72.30;;;;;;5035410;28;20520;-71
2021/12/23 12:20:00;;;;;;;29.93;14.13;;;4.30;70.70;;;;;;5034913;28;20419;-71
2021/12/23 12:22:44;;;;;;;23.63;14.00;;;4.20;70.20;;;;;;5034435;28;20433;-71
2021/12/23 12:25:09;;;;;;;32.83;15.93;;;4.20;70.50;;;;;;5032896;28;20445;-70
2021/12/23 12:27:37;;;;;;;31.10;15.40;;;4.10;70.60;;;;;;5034078;28;21041;-71
2021/12/23 12:30:10;;;;;;;25.13;13.30;;;4.10;71.00;;;;;;5034464;28;20269;-72
2021/12/23 12:32:36;;;;;;;26.20;13.87;;;4.10;71.20;;;;;;5033836;28;20421;-71
2021/12/23 12:35:13;;;;;;;27.07;14.00;;;4.10;71.50;;;;;;5033976;28;20448;-71
2021/12/23 12:37:46;;;;;;;27.17;13.37;;;4.10;71.60;;;;;;5032997;28;20436;-71
2021/12/23 12:40:12;;;;;;;28.50;16.50;;;4.20;71.70;;;;;;5033083;28;20432;-71
2021/12/23 12:42:44;;;;;;;28.50;15.97;;;4.20;71.70;;;;;;5033791;28;20452;-73
2021/12/23 12:45:15;;;;;;;31.00;12.87;;;4.20;71.40;;;;;;5033518;28;20475;-73
2021/12/23 12:47:52;;;;;;;30.07;15.10;;;4.20;71.50;;;;;;5033641;28;20583;-71
2021/12/23 12:50:20;;;;;;;24.40;14.33;;;4.20;71.50;;;;;;5032005;28;20429;-69
2021/12/23 12:52:49;;;;;;;29.40;14.93;;;4.20;71.90;;;;;;5034155;28;20401;-72
2021/12/23 12:55:22;;;;;;;25.90;15.27;;;4.30;72.50;;;;;;5033943;28;20467;-73
2021/12/23 12:57:51;;;;;;;27.27;14.53;;;4.30;72.70;;;;;;5032307;28;20952;-72
2021/12/23 13:00:16;;;;;;;35.03;15.10;;;4.30;72.40;;;;;;5031112;28;20423;-72
2021/12/23 13:03:06;;;;;;;27.37;14.77;;;4.40;73.00;;;;;;5032887;28;20437;-73
2021/12/23 13:05:45;;;;;;;21.60;14.00;;;4.50;72.60;;;;;;5031624;28;20213;-73
2021/12/23 13:08:37;;;;;;;23.50;14.10;;;4.50;72.20;;;;;;5032458;28;20453;-71
2021/12/23 13:11:08;;;;;;;26.87;13.33;;;4.60;72.80;;;;;;5033479;28;20500;-71
2021/12/23 13:14:00;;;;;;;25.73;14.13;;;4.60;72.50;;;;;;5033039;28;20404;-72
2021/12/23 13:16:54;;;;;;;143.50;74.70;;;4.70;72.50;;;;;;5031858;28;20421;-73
2021/12/23 13:19:21;;;;;;;22.37;13.20;;;4.80;73.00;;;;;;5034078;28;20474;-72
2021/12/23 13:21:54;;;;;;;28.13;14.73;;;4.90;72.60;;;;;;5032334;28;20424;-71
2021/12/23 13:24:22;;;;;;;29.17;15.50;;;5.00;72.40;;;;;;5047246;28;20425;-72
2021/12/23 13:26:50;;;;;;;29.70;16.43;;;5.00;72.20;;;;;;5033211;28;20518;-71
2021/12/23 13:29:17;;;;;;;31.60;15.57;;;5.00;72.40;;;;;;5035739;28;20527;-72
2021/12/23 13:31:45;;;;;;;38.43;16.13;;;5.00;72.30;;;;;;5032577;28;20463;-73
2021/12/23 13:34:17;;;;;;;28.07;14.13;;;5.00;72.70;;;;;;5034684;28;20785;-72
2021/12/23 13:36:55;;;;;;;27.40;15.17;;;4.90;72.70;;;;;;5033225;28;20425;-72
2021/12/23 13:39:30;;;;;;;26.67;15.93;;;4.90;73.40;;;;;;5033201;28;20440;-71
2021/12/23 13:42:04;;;;;;;32.13;17.83;;;4.90;73.90;;;;;;5029452;28;20413;-72
2021/12/23 13:44:56;;;;;;;26.37;13.90;;;4.90;74.20;;;;;;5032225;28;20463;-72
2021/12/23 13:47:24;;;;;;;21.60;12.03;;;4.80;74.60;;;;;;5029539;28;20464;-72
2021/12/23 13:49:53;;;;;;;37.53;18.90;;;4.90;74.80;;;;;;5033378;28;20443;-72
2021/12/23 13:52:50;;;;;;;32.23;16.07;;;4.90;75.50;;;;;;5033207;28;20433;-72
2021/12/23 13:55:22;;;;;;;44.50;25.27;;;4.90;75.50;;;;;;5024896;28;20471;-72